Startpagina
METAR-TAF:

METAR-TAF

Vliegvelden :

Luchthaven Athene

Athene, Griekenland

breedte: 37-56N, lengte: 023-56E, hoogte: 94 m

Actueel weer

Dit bericht is 46 minuten geleden gemaakt, om 08:50 UTC
Wind 19 kt uit het noordnoordoosten
Temperatuur 25°C
Vochtigheid 41%
Druk 1019 hPa
Zicht 10 km of meer
geen wolken onder 1500 m en geen cumulonimbus

METAR: LGAV 190850Z 02019KT CAVOK 25/11 Q1019 NOSIG

Tijdstip: 12:36 (09:36 UTC)

Verwachting

Dit bericht is 4 uur en het 36 minuten geleden gemaakt, om 05:00 UTC
Verwachting geldig van 19 om 06 UTC tot 20 om 06 UTC
Wind 10 kt uit het noorden
Zicht 10 km of meer
Weinig wolken op 2500 ft
Wijzigt naar
van 19 om 06 UTC tot 19 om 08 UTC
Wind 20 kt uit het noorden
Tijdelijke
van 19 om 08 UTC tot 19 om 15 UTC
Wind 24 kt uit het noorden met uitschieters tot 34 kt
Wijzigt naar
van 19 om 15 UTC tot 19 om 17 UTC
Wind 14 kt uit het noorden

TAF: LGAV 190500Z 1906/2006 01010KT 9999 FEW025 BECMG 1906/1908 01020KT TEMPO 1908/1915 01024G34KT BECMG 1915/1917 36014KT

Waarnemingen en weersverwachtingen van meer dan 4000 vliegvelden (METAR en TAF).

De beschikbare stations zijn de gele en rode punten op de kaart.

Ga met uw muis naar het station om de naam te zien.

Klik dan om waarnemingen en weersverwachtingen te zien.

kaart wijzigen: klik op de groene knoppen met een zwart kruis om in te zoomen, op de groene knop met een streepje om uit te zoomen of op de groene pijlen voor aangrenzende kaarten.


METAR-TAF: